JTE7489 YMML-YPAD
Flight info
| Callsign | JTE7489 |
|---|---|
| Flight time | 1h 12m |
| Altitude | 30000 |
| Route | ML H345 AD |
| Aircraft | RJ1H/M-SDFGIRWY/LB1 |
Departure
| Time | 2026-05-06 11:13 |
|---|---|
| Airport | Melbourne Airport (YMML) |
Arrival
| Time | 2026-05-06 12:26 |
|---|---|
| Airport | Adelaide International Airport (YPAD) |
| Time | Latitude | Longitude | Altitude | Speed | Heading |
|---|---|---|---|---|---|
| 2026-05-06 10:33 | -37.67801 | 144.84713 | 372 ft | 0 kts | 131° |
| 2026-05-06 10:54 | -37.67798 | 144.84709 | 373 ft | 3 kts | 131° |
| 2026-05-06 10:54 | -37.67780 | 144.84684 | 373 ft | 4 kts | 134° |
| 2026-05-06 10:54 | -37.67763 | 144.84661 | 373 ft | 2 kts | 131° |
| 2026-05-06 10:55 | -37.67753 | 144.84635 | 369 ft | 4 kts | 87° |
| 2026-05-06 10:55 | -37.67765 | 144.84609 | 370 ft | 4 kts | 34° |
| 2026-05-06 10:55 | -37.67789 | 144.84597 | 367 ft | 4 kts | 3° |
| 2026-05-06 10:55 | -37.67815 | 144.84600 | 366 ft | 4 kts | 351° |
| 2026-05-06 10:56 | -37.67837 | 144.84604 | 365 ft | 4 kts | 352° |
| 2026-05-06 10:56 | -37.67864 | 144.84609 | 369 ft | 4 kts | 352° |
| 2026-05-06 10:56 | -37.67890 | 144.84614 | 362 ft | 2 kts | 351° |
| 2026-05-06 10:56 | -37.67892 | 144.84614 | 362 ft | 0 kts | 351° |
| 2026-05-06 11:00 | -37.67889 | 144.84614 | 362 ft | 2 kts | 351° |
| 2026-05-06 11:00 | -37.67876 | 144.84611 | 366 ft | 1 kts | 351° |
| 2026-05-06 11:00 | -37.67868 | 144.84610 | 363 ft | 2 kts | 351° |
| 2026-05-06 11:00 | -37.67834 | 144.84585 | 367 ft | 10 kts | 306° |
| 2026-05-06 11:01 | -37.67829 | 144.84482 | 367 ft | 12 kts | 259° |
| 2026-05-06 11:01 | -37.67800 | 144.84384 | 367 ft | 14 kts | 342° |
| 2026-05-06 11:01 | -37.67713 | 144.84365 | 371 ft | 12 kts | 352° |
| 2026-05-06 11:01 | -37.67631 | 144.84349 | 371 ft | 12 kts | 351° |
| 2026-05-06 11:02 | -37.67543 | 144.84333 | 374 ft | 14 kts | 352° |
| 2026-05-06 11:02 | -37.67439 | 144.84314 | 376 ft | 17 kts | 351° |
| 2026-05-06 11:02 | -37.67307 | 144.84289 | 379 ft | 22 kts | 351° |
| 2026-05-06 11:02 | -37.67141 | 144.84258 | 382 ft | 26 kts | 351° |
| 2026-05-06 11:03 | -37.66960 | 144.84224 | 386 ft | 25 kts | 351° |
| 2026-05-06 11:03 | -37.66805 | 144.84194 | 391 ft | 20 kts | 351° |
| 2026-05-06 11:03 | -37.66682 | 144.84171 | 396 ft | 15 kts | 351° |
| 2026-05-06 11:03 | -37.66594 | 144.84155 | 400 ft | 11 kts | 351° |
| 2026-05-06 11:04 | -37.66522 | 144.84141 | 403 ft | 10 kts | 351° |
| 2026-05-06 11:04 | -37.66453 | 144.84128 | 406 ft | 10 kts | 351° |
| 2026-05-06 11:04 | -37.66434 | 144.84123 | 407 ft | 3 kts | 347° |
| 2026-05-06 11:04 | -37.66409 | 144.84124 | 408 ft | 0 kts | 11° |
| 2026-05-06 11:05 | -37.66352 | 144.84188 | 410 ft | 3 kts | 94° |
| 2026-05-06 11:08 | -37.66354 | 144.84217 | 409 ft | 6 kts | 94° |
| 2026-05-06 11:09 | -37.66357 | 144.84277 | 409 ft | 7 kts | 93° |
| 2026-05-06 11:09 | -37.66359 | 144.84336 | 409 ft | 7 kts | 92° |
| 2026-05-06 11:09 | -37.66363 | 144.84402 | 409 ft | 9 kts | 95° |
| 2026-05-06 11:09 | -37.66368 | 144.84492 | 409 ft | 12 kts | 94° |
| 2026-05-06 11:10 | -37.66376 | 144.84611 | 408 ft | 15 kts | 95° |
| 2026-05-06 11:10 | -37.66381 | 144.84738 | 410 ft | 14 kts | 76° |
| 2026-05-06 11:10 | -37.66312 | 144.84788 | 412 ft | 12 kts | 7° |
| 2026-05-06 11:10 | -37.66234 | 144.84791 | 410 ft | 11 kts | 330° |
| 2026-05-06 11:11 | -37.66226 | 144.84768 | 412 ft | 0 kts | 273° |
| 2026-05-06 11:11 | -37.66223 | 144.84719 | 413 ft | 21 kts | 273° |
| 2026-05-06 11:11 | -37.66206 | 144.84379 | 410 ft | 56 kts | 274° |
| 2026-05-06 11:11 | -37.66174 | 144.83768 | 413 ft | 82 kts | 274° |
| 2026-05-06 11:12 | -37.66123 | 144.82959 | 408 ft | 102 kts | 275° |
| 2026-05-06 11:12 | -37.66063 | 144.82020 | 457 ft | 109 kts | 272° |
| 2026-05-06 11:12 | -37.65986 | 144.81054 | 480 ft | 113 kts | 272° |
| 2026-05-06 11:12 | -37.65900 | 144.80014 | 514 ft | 125 kts | 272° |
| 2026-05-06 11:13 | -37.65769 | 144.78904 | 634 ft | 128 kts | 276° |
| 2026-05-06 11:13 | -37.65591 | 144.77840 | 970 ft | 125 kts | 272° |
| 2026-05-06 11:13 | -37.65552 | 144.76815 | 1340 ft | 117 kts | 266° |
| 2026-05-06 11:13 | -37.65532 | 144.75767 | 1507 ft | 121 kts | 265° |
| 2026-05-06 11:14 | -37.65523 | 144.74701 | 1698 ft | 122 kts | 266° |
| 2026-05-06 11:14 | -37.65527 | 144.73615 | 1855 ft | 126 kts | 269° |
| 2026-05-06 11:14 | -37.65496 | 144.72472 | 1942 ft | 137 kts | 271° |
| 2026-05-06 11:14 | -37.65438 | 144.71199 | 2023 ft | 153 kts | 270° |
| 2026-05-06 11:15 | -37.65376 | 144.69798 | 2129 ft | 167 kts | 270° |
| 2026-05-06 11:15 | -37.65302 | 144.68305 | 2313 ft | 174 kts | 270° |
| 2026-05-06 11:15 | -37.65217 | 144.66700 | 2403 ft | 194 kts | 269° |
| 2026-05-06 11:15 | -37.64965 | 144.64918 | 2539 ft | 218 kts | 283° |
| 2026-05-06 11:16 | -37.64436 | 144.63045 | 2796 ft | 234 kts | 286° |
| 2026-05-06 11:16 | -37.63834 | 144.61099 | 3180 ft | 241 kts | 287° |
| 2026-05-06 11:16 | -37.63190 | 144.59145 | 3680 ft | 240 kts | 287° |
| 2026-05-06 11:16 | -37.62544 | 144.57203 | 4184 ft | 240 kts | 287° |
| 2026-05-06 11:17 | -37.61904 | 144.55258 | 4721 ft | 240 kts | 287° |
| 2026-05-06 11:17 | -37.61260 | 144.53314 | 5217 ft | 241 kts | 287° |
| 2026-05-06 11:17 | -37.60626 | 144.51357 | 5700 ft | 242 kts | 287° |
| 2026-05-06 11:17 | -37.59998 | 144.49386 | 6177 ft | 242 kts | 288° |
| 2026-05-06 11:18 | -37.59374 | 144.47440 | 6794 ft | 238 kts | 289° |
| 2026-05-06 11:18 | -37.58760 | 144.45523 | 7270 ft | 239 kts | 290° |
| 2026-05-06 11:18 | -37.58124 | 144.43548 | 7801 ft | 240 kts | 290° |
| 2026-05-06 11:18 | -37.57488 | 144.41596 | 8339 ft | 241 kts | 290° |
| 2026-05-06 11:19 | -37.56854 | 144.39637 | 8945 ft | 242 kts | 291° |
| 2026-05-06 11:19 | -37.56224 | 144.37704 | 9447 ft | 243 kts | 291° |
| 2026-05-06 11:19 | -37.55579 | 144.35729 | 9688 ft | 245 kts | 291° |
| 2026-05-06 11:19 | -37.54928 | 144.33744 | 10187 ft | 246 kts | 291° |
| 2026-05-06 11:20 | -37.54261 | 144.31682 | 10428 ft | 261 kts | 291° |
| 2026-05-06 11:20 | -37.53558 | 144.29508 | 10619 ft | 274 kts | 291° |
| 2026-05-06 11:20 | -37.52831 | 144.27266 | 11025 ft | 278 kts | 291° |
| 2026-05-06 11:20 | -37.52094 | 144.25026 | 11601 ft | 275 kts | 291° |
| 2026-05-06 11:21 | -37.51363 | 144.22806 | 12196 ft | 273 kts | 290° |
| 2026-05-06 11:21 | -37.50641 | 144.20602 | 12736 ft | 272 kts | 289° |
| 2026-05-06 11:21 | -37.49939 | 144.18391 | 13240 ft | 272 kts | 288° |
| 2026-05-06 11:21 | -37.49237 | 144.16182 | 13774 ft | 272 kts | 288° |
| 2026-05-06 11:22 | -37.48534 | 144.13978 | 14206 ft | 272 kts | 288° |
| 2026-05-06 11:22 | -37.47825 | 144.11763 | 14576 ft | 273 kts | 288° |
| 2026-05-06 11:22 | -37.47116 | 144.09535 | 14898 ft | 275 kts | 289° |
| 2026-05-06 11:22 | -37.46387 | 144.07306 | 15224 ft | 276 kts | 289° |
| 2026-05-06 11:23 | -37.45655 | 144.05062 | 15578 ft | 278 kts | 289° |
| 2026-05-06 11:23 | -37.44921 | 144.02807 | 15940 ft | 279 kts | 290° |
| 2026-05-06 11:23 | -37.44166 | 144.00542 | 16292 ft | 281 kts | 290° |
| 2026-05-06 11:23 | -37.43408 | 143.98269 | 16644 ft | 283 kts | 290° |
| 2026-05-06 11:24 | -37.42648 | 143.95982 | 16999 ft | 284 kts | 290° |
| 2026-05-06 11:24 | -37.41888 | 143.93680 | 17365 ft | 286 kts | 290° |
| 2026-05-06 11:24 | -37.41132 | 143.91363 | 17710 ft | 287 kts | 290° |
| 2026-05-06 11:24 | -37.40364 | 143.89036 | 18053 ft | 289 kts | 291° |
| 2026-05-06 11:25 | -37.39581 | 143.86701 | 18389 ft | 291 kts | 291° |
| 2026-05-06 11:25 | -37.38797 | 143.84354 | 18697 ft | 292 kts | 291° |
| 2026-05-06 11:25 | -37.38006 | 143.81998 | 18987 ft | 293 kts | 291° |
| 2026-05-06 11:25 | -37.37226 | 143.79630 | 19284 ft | 294 kts | 291° |
| 2026-05-06 11:26 | -37.36445 | 143.77255 | 19580 ft | 294 kts | 290° |
| 2026-05-06 11:26 | -37.35662 | 143.74876 | 19865 ft | 295 kts | 290° |
| 2026-05-06 11:26 | -37.34870 | 143.72489 | 20139 ft | 296 kts | 289° |
| 2026-05-06 11:26 | -37.34086 | 143.70089 | 20420 ft | 297 kts | 289° |
| 2026-05-06 11:27 | -37.33305 | 143.67683 | 20704 ft | 298 kts | 289° |
| 2026-05-06 11:27 | -37.32525 | 143.65277 | 21173 ft | 296 kts | 290° |
| 2026-05-06 11:27 | -37.31758 | 143.62927 | 21548 ft | 294 kts | 290° |
| 2026-05-06 11:27 | -37.30971 | 143.60547 | 21801 ft | 296 kts | 290° |
| 2026-05-06 11:28 | -37.30165 | 143.58123 | 22050 ft | 298 kts | 290° |
| 2026-05-06 11:28 | -37.29363 | 143.55720 | 22305 ft | 299 kts | 290° |
| 2026-05-06 11:28 | -37.28557 | 143.53307 | 22570 ft | 300 kts | 290° |
| 2026-05-06 11:28 | -37.27744 | 143.50885 | 22827 ft | 302 kts | 290° |
| 2026-05-06 11:29 | -37.26928 | 143.48451 | 23048 ft | 303 kts | 289° |
| 2026-05-06 11:29 | -37.26124 | 143.46038 | 23268 ft | 304 kts | 288° |
| 2026-05-06 11:29 | -37.25315 | 143.43574 | 23517 ft | 306 kts | 289° |
| 2026-05-06 11:29 | -37.24482 | 143.41071 | 23765 ft | 307 kts | 289° |
| 2026-05-06 11:30 | -37.23655 | 143.38595 | 23960 ft | 309 kts | 289° |
| 2026-05-06 11:30 | -37.22836 | 143.36139 | 24145 ft | 310 kts | 289° |
| 2026-05-06 11:30 | -37.22004 | 143.33641 | 24340 ft | 311 kts | 289° |
| 2026-05-06 11:30 | -37.21170 | 143.31135 | 24519 ft | 312 kts | 289° |
| 2026-05-06 11:31 | -37.20336 | 143.28615 | 24686 ft | 314 kts | 289° |
| 2026-05-06 11:31 | -37.19521 | 143.26061 | 24818 ft | 316 kts | 288° |
| 2026-05-06 11:31 | -37.18715 | 143.23492 | 25015 ft | 317 kts | 287° |
| 2026-05-06 11:31 | -37.17915 | 143.20916 | 25239 ft | 317 kts | 287° |
| 2026-05-06 11:32 | -37.17130 | 143.18345 | 25508 ft | 315 kts | 287° |
| 2026-05-06 11:32 | -37.16357 | 143.15800 | 25880 ft | 310 kts | 287° |
| 2026-05-06 11:32 | -37.15594 | 143.13272 | 26115 ft | 310 kts | 287° |
| 2026-05-06 11:32 | -37.14828 | 143.10744 | 26338 ft | 310 kts | 287° |
| 2026-05-06 11:33 | -37.14062 | 143.08216 | 26555 ft | 310 kts | 287° |
| 2026-05-06 11:33 | -37.13297 | 143.05691 | 26769 ft | 310 kts | 287° |
| 2026-05-06 11:33 | -37.12534 | 143.03164 | 26986 ft | 310 kts | 287° |
| 2026-05-06 11:33 | -37.11759 | 143.00643 | 27158 ft | 310 kts | 287° |
| 2026-05-06 11:34 | -37.10977 | 142.98130 | 27363 ft | 310 kts | 286° |
| 2026-05-06 11:34 | -37.10208 | 142.95609 | 27579 ft | 309 kts | 286° |
| 2026-05-06 11:34 | -37.09445 | 142.93088 | 27771 ft | 310 kts | 286° |
| 2026-05-06 11:34 | -37.08667 | 142.90573 | 27975 ft | 310 kts | 287° |
| 2026-05-06 11:35 | -37.07884 | 142.88059 | 28176 ft | 310 kts | 287° |
| 2026-05-06 11:35 | -37.07364 | 142.86396 | 28305 ft | 309 kts | 286° |
| 2026-05-06 11:35 | -37.06587 | 142.83887 | 28498 ft | 309 kts | 287° |
| 2026-05-06 11:35 | -37.05543 | 142.80530 | 28752 ft | 309 kts | 287° |
| 2026-05-06 11:36 | -37.05026 | 142.78868 | 28874 ft | 309 kts | 287° |
| 2026-05-06 11:36 | -37.04246 | 142.76361 | 29026 ft | 309 kts | 287° |
| 2026-05-06 11:36 | -37.03467 | 142.73846 | 29183 ft | 310 kts | 286° |
| 2026-05-06 11:36 | -37.02697 | 142.71330 | 29357 ft | 310 kts | 286° |
| 2026-05-06 11:37 | -37.01931 | 142.68808 | 29547 ft | 309 kts | 285° |
| 2026-05-06 11:37 | -37.01169 | 142.66293 | 29721 ft | 309 kts | 286° |
| 2026-05-06 11:37 | -37.00389 | 142.63784 | 29898 ft | 309 kts | 286° |
| 2026-05-06 11:37 | -36.99601 | 142.61278 | 30065 ft | 309 kts | 286° |
| 2026-05-06 11:38 | -36.98816 | 142.58782 | 30180 ft | 306 kts | 286° |
| 2026-05-06 11:38 | -36.97293 | 142.53854 | 30226 ft | 305 kts | 286° |
| 2026-05-06 11:39 | -36.95730 | 142.48850 | 30218 ft | 312 kts | 285° |
| 2026-05-06 11:39 | -36.94152 | 142.43725 | 30228 ft | 319 kts | 285° |
| 2026-05-06 11:40 | -36.92509 | 142.38520 | 30231 ft | 324 kts | 286° |
| 2026-05-06 11:40 | -36.90838 | 142.33244 | 30245 ft | 329 kts | 286° |
| 2026-05-06 11:41 | -36.89139 | 142.27889 | 30215 ft | 331 kts | 285° |
| 2026-05-06 11:41 | -36.87469 | 142.22556 | 30232 ft | 330 kts | 285° |
| 2026-05-06 11:42 | -36.85811 | 142.17243 | 30239 ft | 331 kts | 285° |
| 2026-05-06 11:42 | -36.84140 | 142.11882 | 30240 ft | 331 kts | 285° |
| 2026-05-06 11:43 | -36.82443 | 142.06530 | 30243 ft | 332 kts | 285° |
| 2026-05-06 11:43 | -36.80737 | 142.01185 | 30228 ft | 331 kts | 285° |
| 2026-05-06 11:44 | -36.78174 | 141.93162 | 30246 ft | 333 kts | 285° |
| 2026-05-06 11:44 | -36.76457 | 141.87793 | 30251 ft | 333 kts | 285° |
| 2026-05-06 11:45 | -36.74743 | 141.82431 | 30219 ft | 333 kts | 285° |
| 2026-05-06 11:45 | -36.73026 | 141.77081 | 30238 ft | 333 kts | 286° |
| 2026-05-06 11:46 | -36.71289 | 141.71702 | 30249 ft | 336 kts | 285° |
| 2026-05-06 11:46 | -36.69543 | 141.66296 | 30266 ft | 336 kts | 285° |
| 2026-05-06 11:47 | -36.67800 | 141.60889 | 30270 ft | 336 kts | 286° |
| 2026-05-06 11:47 | -36.66057 | 141.55485 | 30269 ft | 336 kts | 286° |
| 2026-05-06 11:48 | -36.64319 | 141.50123 | 30272 ft | 336 kts | 285° |
| 2026-05-06 11:48 | -36.62573 | 141.44723 | 30269 ft | 336 kts | 285° |
| 2026-05-06 11:49 | -36.60819 | 141.39320 | 30266 ft | 336 kts | 286° |
| 2026-05-06 11:49 | -36.59066 | 141.33921 | 30234 ft | 336 kts | 285° |
| 2026-05-06 11:50 | -36.57317 | 141.28500 | 30262 ft | 339 kts | 285° |
| 2026-05-06 11:50 | -36.55561 | 141.23029 | 30278 ft | 342 kts | 285° |
| 2026-05-06 11:51 | -36.53760 | 141.17557 | 30277 ft | 342 kts | 285° |
| 2026-05-06 11:51 | -36.51967 | 141.12094 | 30278 ft | 341 kts | 285° |
| 2026-05-06 11:52 | -36.50183 | 141.06618 | 30264 ft | 344 kts | 285° |
| 2026-05-06 11:52 | -36.48349 | 141.01092 | 30281 ft | 347 kts | 285° |
| 2026-05-06 11:53 | -36.46512 | 140.95534 | 30290 ft | 348 kts | 285° |
| 2026-05-06 11:53 | -36.44676 | 140.89976 | 30287 ft | 347 kts | 285° |
| 2026-05-06 11:54 | -36.42839 | 140.84418 | 30271 ft | 349 kts | 284° |
| 2026-05-06 11:54 | -36.40994 | 140.78802 | 30292 ft | 353 kts | 285° |
| 2026-05-06 11:55 | -36.38746 | 140.73299 | 30297 ft | 363 kts | 294° |
| 2026-05-06 11:55 | -36.35797 | 140.68187 | 30293 ft | 369 kts | 299° |
| 2026-05-06 11:56 | -36.32579 | 140.63209 | 30265 ft | 370 kts | 299° |
| 2026-05-06 11:56 | -36.29333 | 140.58204 | 30312 ft | 373 kts | 299° |
| 2026-05-06 11:57 | -36.26092 | 140.53143 | 30298 ft | 375 kts | 298° |
| 2026-05-06 11:57 | -36.22855 | 140.48062 | 30305 ft | 375 kts | 299° |
| 2026-05-06 11:58 | -36.19636 | 140.42990 | 30302 ft | 374 kts | 299° |
| 2026-05-06 11:58 | -36.16385 | 140.37931 | 30296 ft | 377 kts | 299° |
| 2026-05-06 11:59 | -36.13116 | 140.32815 | 30307 ft | 380 kts | 299° |
| 2026-05-06 11:59 | -36.09823 | 140.27678 | 30307 ft | 381 kts | 299° |
| 2026-05-06 12:00 | -36.06529 | 140.22554 | 30307 ft | 380 kts | 299° |
| 2026-05-06 12:00 | -36.03244 | 140.17398 | 29865 ft | 387 kts | 299° |
| 2026-05-06 12:01 | -36.01580 | 140.14768 | 29446 ft | 389 kts | 299° |
| 2026-05-06 12:01 | -35.99899 | 140.12146 | 29075 ft | 389 kts | 300° |
| 2026-05-06 12:01 | -35.98205 | 140.09540 | 28693 ft | 389 kts | 300° |
| 2026-05-06 12:01 | -35.96521 | 140.06933 | 28347 ft | 388 kts | 300° |
| 2026-05-06 12:02 | -35.94834 | 140.04321 | 28006 ft | 389 kts | 300° |
| 2026-05-06 12:02 | -35.93135 | 140.01683 | 27672 ft | 394 kts | 300° |
| 2026-05-06 12:02 | -35.91431 | 139.99040 | 27311 ft | 392 kts | 300° |
| 2026-05-06 12:02 | -35.89736 | 139.96419 | 26923 ft | 390 kts | 300° |
| 2026-05-06 12:03 | -35.88047 | 139.93800 | 26566 ft | 390 kts | 300° |
| 2026-05-06 12:03 | -35.86363 | 139.91186 | 26219 ft | 388 kts | 300° |
| 2026-05-06 12:03 | -35.84687 | 139.88590 | 25864 ft | 386 kts | 300° |
| 2026-05-06 12:03 | -35.83043 | 139.86048 | 25529 ft | 384 kts | 300° |
| 2026-05-06 12:04 | -35.81359 | 139.83452 | 25181 ft | 382 kts | 300° |
| 2026-05-06 12:04 | -35.79725 | 139.80934 | 24851 ft | 381 kts | 300° |
| 2026-05-06 12:04 | -35.78071 | 139.78397 | 24524 ft | 379 kts | 300° |
| 2026-05-06 12:04 | -35.76426 | 139.75875 | 24192 ft | 377 kts | 300° |
| 2026-05-06 12:05 | -35.74784 | 139.73365 | 23832 ft | 375 kts | 300° |
| 2026-05-06 12:05 | -35.73154 | 139.70857 | 23446 ft | 375 kts | 300° |
| 2026-05-06 12:05 | -35.71528 | 139.68356 | 23067 ft | 374 kts | 300° |
| 2026-05-06 12:05 | -35.69906 | 139.65866 | 22684 ft | 372 kts | 300° |
| 2026-05-06 12:06 | -35.68285 | 139.63390 | 22323 ft | 371 kts | 300° |
| 2026-05-06 12:06 | -35.66664 | 139.60926 | 21946 ft | 370 kts | 300° |
| 2026-05-06 12:06 | -35.65062 | 139.58461 | 21561 ft | 368 kts | 299° |
| 2026-05-06 12:06 | -35.63474 | 139.55999 | 21186 ft | 367 kts | 299° |
| 2026-05-06 12:07 | -35.61892 | 139.53549 | 20814 ft | 365 kts | 298° |
| 2026-05-06 12:07 | -35.60293 | 139.51118 | 20428 ft | 367 kts | 299° |
| 2026-05-06 12:07 | -35.58678 | 139.48686 | 20070 ft | 368 kts | 299° |
| 2026-05-06 12:07 | -35.57074 | 139.46250 | 19712 ft | 365 kts | 299° |
| 2026-05-06 12:08 | -35.55484 | 139.43820 | 19301 ft | 365 kts | 298° |
| 2026-05-06 12:08 | -35.53896 | 139.41397 | 18887 ft | 364 kts | 298° |
| 2026-05-06 12:08 | -35.52309 | 139.38987 | 18442 ft | 362 kts | 298° |
| 2026-05-06 12:08 | -35.50728 | 139.36593 | 17955 ft | 360 kts | 298° |
| 2026-05-06 12:09 | -35.49167 | 139.34216 | 17451 ft | 355 kts | 299° |
| 2026-05-06 12:09 | -35.47634 | 139.31866 | 16984 ft | 351 kts | 300° |
| 2026-05-06 12:09 | -35.46115 | 139.29537 | 16522 ft | 348 kts | 300° |
| 2026-05-06 12:09 | -35.44591 | 139.27239 | 16065 ft | 346 kts | 300° |
| 2026-05-06 12:10 | -35.43077 | 139.24965 | 15624 ft | 343 kts | 301° |
| 2026-05-06 12:10 | -35.41309 | 139.23013 | 15189 ft | 358 kts | 322° |
| 2026-05-06 12:10 | -35.39004 | 139.21771 | 14769 ft | 364 kts | 332° |
| 2026-05-06 12:10 | -35.36632 | 139.20706 | 14349 ft | 361 kts | 333° |
| 2026-05-06 12:11 | -35.34275 | 139.19675 | 13911 ft | 358 kts | 333° |
| 2026-05-06 12:11 | -35.31931 | 139.18673 | 13468 ft | 355 kts | 333° |
| 2026-05-06 12:11 | -35.29611 | 139.17667 | 13022 ft | 352 kts | 333° |
| 2026-05-06 12:11 | -35.27315 | 139.16654 | 12585 ft | 349 kts | 333° |
| 2026-05-06 12:12 | -35.25047 | 139.15621 | 12156 ft | 346 kts | 332° |
| 2026-05-06 12:12 | -35.22806 | 139.14574 | 11728 ft | 343 kts | 332° |
| 2026-05-06 12:12 | -35.20591 | 139.13536 | 11302 ft | 337 kts | 332° |
| 2026-05-06 12:12 | -35.18415 | 139.12532 | 10911 ft | 330 kts | 332° |
| 2026-05-06 12:13 | -35.16305 | 139.11565 | 10694 ft | 318 kts | 332° |
| 2026-05-06 12:13 | -35.14272 | 139.10645 | 10561 ft | 305 kts | 332° |
| 2026-05-06 12:13 | -35.12322 | 139.09746 | 10371 ft | 296 kts | 332° |
| 2026-05-06 12:13 | -35.10398 | 139.08853 | 9970 ft | 296 kts | 332° |
| 2026-05-06 12:14 | -35.08477 | 139.07949 | 9554 ft | 296 kts | 332° |
| 2026-05-06 12:14 | -35.06691 | 139.06819 | 9171 ft | 284 kts | 316° |
| 2026-05-06 12:14 | -35.05177 | 139.05305 | 8808 ft | 280 kts | 311° |
| 2026-05-06 12:14 | -35.03720 | 139.03733 | 8438 ft | 278 kts | 310° |
| 2026-05-06 12:15 | -35.02313 | 139.02139 | 8094 ft | 274 kts | 309° |
| 2026-05-06 12:15 | -35.00942 | 139.00555 | 7853 ft | 269 kts | 309° |
| 2026-05-06 12:15 | -34.99586 | 138.99004 | 7574 ft | 268 kts | 309° |
| 2026-05-06 12:15 | -34.98225 | 138.97452 | 7225 ft | 267 kts | 309° |
| 2026-05-06 12:16 | -34.96870 | 138.95910 | 6929 ft | 265 kts | 309° |
| 2026-05-06 12:16 | -34.95528 | 138.94380 | 6653 ft | 264 kts | 309° |
| 2026-05-06 12:16 | -34.94178 | 138.92867 | 6354 ft | 263 kts | 310° |
| 2026-05-06 12:16 | -34.92833 | 138.91357 | 6057 ft | 261 kts | 310° |
| 2026-05-06 12:17 | -34.91505 | 138.89866 | 5783 ft | 259 kts | 311° |
| 2026-05-06 12:17 | -34.90178 | 138.88380 | 5532 ft | 260 kts | 311° |
| 2026-05-06 12:17 | -34.88848 | 138.86891 | 5305 ft | 259 kts | 311° |
| 2026-05-06 12:17 | -34.87521 | 138.85410 | 5045 ft | 258 kts | 312° |
| 2026-05-06 12:18 | -34.86202 | 138.83939 | 4769 ft | 257 kts | 313° |
| 2026-05-06 12:18 | -34.84875 | 138.82477 | 4511 ft | 257 kts | 313° |
| 2026-05-06 12:18 | -34.83546 | 138.81025 | 4254 ft | 256 kts | 313° |
| 2026-05-06 12:18 | -34.82229 | 138.79570 | 3996 ft | 255 kts | 313° |
| 2026-05-06 12:19 | -34.81161 | 138.77935 | 3845 ft | 238 kts | 284° |
| 2026-05-06 12:19 | -34.81027 | 138.76099 | 3829 ft | 212 kts | 256° |
| 2026-05-06 12:19 | -34.81293 | 138.74391 | 3783 ft | 198 kts | 246° |
| 2026-05-06 12:19 | -34.81910 | 138.72994 | 3790 ft | 180 kts | 233° |
| 2026-05-06 12:20 | -34.82522 | 138.71725 | 3771 ft | 171 kts | 233° |
| 2026-05-06 12:20 | -34.83159 | 138.70488 | 3487 ft | 174 kts | 231° |
| 2026-05-06 12:20 | -34.83844 | 138.69288 | 3230 ft | 171 kts | 227° |
| 2026-05-06 12:20 | -34.84551 | 138.68203 | 2982 ft | 155 kts | 225° |
| 2026-05-06 12:21 | -34.85212 | 138.67225 | 2786 ft | 146 kts | 224° |
| 2026-05-06 12:21 | -34.85823 | 138.66225 | 2580 ft | 149 kts | 225° |
| 2026-05-06 12:21 | -34.86504 | 138.65295 | 2380 ft | 146 kts | 221° |
| 2026-05-06 12:21 | -34.87185 | 138.64374 | 2178 ft | 145 kts | 223° |
| 2026-05-06 12:22 | -34.87803 | 138.63484 | 1982 ft | 132 kts | 223° |
| 2026-05-06 12:22 | -34.88377 | 138.62651 | 1799 ft | 127 kts | 223° |
| 2026-05-06 12:22 | -34.88935 | 138.61839 | 1612 ft | 120 kts | 224° |
| 2026-05-06 12:22 | -34.89437 | 138.61095 | 1474 ft | 110 kts | 224° |
| 2026-05-06 12:23 | -34.89761 | 138.60620 | 1366 ft | 109 kts | 224° |
| 2026-05-06 12:23 | -34.90247 | 138.59917 | 1219 ft | 109 kts | 225° |
| 2026-05-06 12:23 | -34.90903 | 138.58955 | 1026 ft | 112 kts | 225° |
| 2026-05-06 12:23 | -34.91221 | 138.58472 | 964 ft | 108 kts | 226° |
| 2026-05-06 12:24 | -34.91709 | 138.57740 | 746 ft | 118 kts | 226° |
| 2026-05-06 12:24 | -34.92253 | 138.56947 | 633 ft | 121 kts | 225° |
| 2026-05-06 12:24 | -34.92768 | 138.56192 | 531 ft | 111 kts | 225° |
| 2026-05-06 12:24 | -34.93270 | 138.55471 | 331 ft | 113 kts | 224° |
| 2026-05-06 12:25 | -34.93784 | 138.54732 | 176 ft | 118 kts | 225° |
| 2026-05-06 12:25 | -34.94301 | 138.53967 | 52 ft | 113 kts | 224° |
| 2026-05-06 12:25 | -34.94772 | 138.53313 | 26 ft | 90 kts | 227° |
| 2026-05-06 12:25 | -34.95115 | 138.52806 | 28 ft | 57 kts | 230° |
| 2026-05-06 12:26 | -34.95235 | 138.52632 | 26 ft | 14 kts | 236° |
| 2026-05-06 12:26 | -34.95222 | 138.52533 | 26 ft | 12 kts | 315° |
| 2026-05-06 12:26 | -34.95158 | 138.52475 | 26 ft | 11 kts | 329° |
| 2026-05-06 12:26 | -34.95090 | 138.52450 | 26 ft | 10 kts | 360° |
| 2026-05-06 12:27 | -34.95027 | 138.52460 | 27 ft | 9 kts | 23° |
| 2026-05-06 12:27 | -34.94981 | 138.52500 | 28 ft | 8 kts | 39° |
| 2026-05-06 12:27 | -34.94912 | 138.52563 | 26 ft | 16 kts | 37° |
| 2026-05-06 12:27 | -34.94819 | 138.52650 | 28 ft | 16 kts | 37° |
| 2026-05-06 12:28 | -34.94731 | 138.52732 | 27 ft | 15 kts | 37° |
| 2026-05-06 12:28 | -34.94651 | 138.52807 | 26 ft | 14 kts | 37° |
| 2026-05-06 12:28 | -34.94578 | 138.52877 | 26 ft | 13 kts | 38° |
| 2026-05-06 12:28 | -34.94512 | 138.52939 | 27 ft | 11 kts | 37° |
| 2026-05-06 12:29 | -34.94452 | 138.52995 | 27 ft | 10 kts | 36° |
| 2026-05-06 12:29 | -34.94389 | 138.52987 | 26 ft | 11 kts | 313° |
| 2026-05-06 12:29 | -34.94325 | 138.52927 | 27 ft | 12 kts | 342° |
| 2026-05-06 12:29 | -34.94241 | 138.52927 | 26 ft | 12 kts | 12° |
| 2026-05-06 12:30 | -34.94176 | 138.52974 | 26 ft | 11 kts | 46° |
| 2026-05-06 12:30 | -34.94144 | 138.53013 | 28 ft | 1 kts | 47° |
| 2026-05-06 12:30 | -34.94141 | 138.53017 | 27 ft | 0 kts | 47° |